Time;durP1;ratioP1;P1;durP2;ratioP2;P2;SDS_P1;SDS_P2;PMS_P1;PMS_P2;Temp;Humidity;BMP_temperature;BMP_pressure;BME280_temperature;BME280_humidity;BME280_pressure;Samples;Min_cycle;Max_cycle;Signal;HPM_P1;HPM_P2
2021/06/16 00:01:34;;;;;;;5.53;2.05;;;;;;;;;;5093098;28;20445;-86
2021/06/16 00:04:03;;;;;;;6.32;2.30;;;;;;;;;;5058605;28;20086;-86
2021/06/16 00:06:30;;;;;;;6.70;2.08;;;;;;;;;;5078850;28;20138;-86
2021/06/16 00:08:57;;;;;;;8.20;3.25;;;;;;;;;;5075430;28;20717;-87
2021/06/16 00:11:24;;;;;;;3.88;1.63;;;;;;;;;;5091533;28;20075;-87
2021/06/16 00:13:52;;;;;;;7.05;2.20;;;;;;;;;;5073345;28;20136;-86
2021/06/16 00:16:25;;;;;;;4.22;1.85;;;;;;;;;;5055683;28;20070;-87
2021/06/16 00:18:52;;;;;;;5.55;2.17;;;;;;;;;;5037924;28;20676;-86
2021/06/16 00:21:20;;;;;;;4.68;2.60;;;;;;;;;;5055073;28;20429;-86
2021/06/16 00:23:48;;;;;;;4.97;2.30;;;;;;;;;;4971556;28;20055;-87
2021/06/16 00:26:16;;;;;;;8.00;2.30;;;;;;;;;;5037664;28;20065;-87
2021/06/16 00:28:44;;;;;;;5.50;2.38;;;;;;;;;;5073033;28;20075;-86
2021/06/16 00:31:12;;;;;;;14.02;2.70;;;;;;;;;;5074060;28;20130;-86
2021/06/16 00:33:39;;;;;;;5.93;2.30;;;;;;;;;;5054516;28;20153;-86
2021/06/16 00:36:06;;;;;;;6.00;2.00;;;;;;;;;;5063269;28;20510;-87
2021/06/16 00:38:40;;;;;;;5.97;2.40;;;;;;;;;;4995780;28;20138;-86
2021/06/16 00:41:07;;;;;;;4.72;2.30;;;;;;;;;;5057802;28;20137;-86
2021/06/16 00:43:34;;;;;;;8.00;3.65;;;;;;;;;;5081050;28;20052;-87
2021/06/16 00:46:01;;;;;;;3.90;2.22;;;;;;;;;;5075221;28;20040;-86
2021/06/16 00:48:28;;;;;;;6.63;2.55;;;;;;;;;;5074905;28;20048;-86
2021/06/16 00:50:56;;;;;;;9.80;2.40;;;;;;;;;;5075185;28;20084;-86
2021/06/16 00:53:25;;;;;;;7.35;2.40;;;;;;;;;;5074973;28;20127;-86
2021/06/16 00:55:52;;;;;;;5.35;2.50;;;;;;;;;;5093109;28;20101;-87
2021/06/16 00:58:19;;;;;;;6.22;2.65;;;;;;;;;;5074230;28;20139;-86
2021/06/16 01:00:52;;;;;;;7.75;2.30;;;;;;;;;;5074613;28;20080;-87
2021/06/16 01:03:22;;;;;;;6.65;2.83;;;;;;;;;;5074609;28;20139;-87
2021/06/16 01:06:09;;;;;;;6.30;2.67;;;;;;;;;;5073924;28;20044;-87
2021/06/16 01:08:38;;;;;;;5.13;2.47;;;;;;;;;;5074313;28;20098;-87
2021/06/16 01:11:08;;;;;;;6.45;2.72;;;;;;;;;;5092094;28;20489;-87
2021/06/16 01:13:35;;;;;;;4.85;2.47;;;;;;;;;;5092470;28;20044;-87
2021/06/16 01:16:05;;;;;;;4.57;2.67;;;;;;;;;;5074223;28;20056;-85
2021/06/16 01:18:35;;;;;;;3.88;2.10;;;;;;;;;;5074707;28;20177;-85
2021/06/16 01:21:03;;;;;;;3.55;2.55;;;;;;;;;;5092528;28;20078;-86
2021/06/16 01:23:38;;;;;;;5.60;2.28;;;;;;;;;;5092094;28;20071;-86
2021/06/16 01:26:05;;;;;;;5.25;2.05;;;;;;;;;;5074308;28;20086;-85
2021/06/16 01:28:43;;;;;;;3.15;1.92;;;;;;;;;;5074490;28;20117;-86
2021/06/16 01:31:13;;;;;;;6.93;2.53;;;;;;;;;;5092334;28;20048;-86
2021/06/16 01:33:40;;;;;;;4.07;2.15;;;;;;;;;;5071840;28;20051;-86
2021/06/16 01:36:08;;;;;;;4.32;2.00;;;;;;;;;;5062212;28;20048;-85
2021/06/16 01:38:35;;;;;;;4.50;2.63;;;;;;;;;;5055616;28;20132;-85
2021/06/16 01:41:04;;;;;;;4.00;2.28;;;;;;;;;;5091998;28;20123;-86
2021/06/16 01:43:31;;;;;;;9.77;3.33;;;;;;;;;;5073589;28;20079;-85
2021/06/16 01:46:17;;;;;;;5.13;2.30;;;;;;;;;;5062085;28;20056;-86
2021/06/16 01:48:44;;;;;;;;;;;;;;;;;;5037219;28;20145;-86
2021/06/16 01:51:13;;;;;;;5.20;2.35;;;;;;;;;;5053847;28;20003;-86
2021/06/16 01:53:41;;;;;;;6.00;2.25;;;;;;;;;;5071389;28;20488;-86
2021/06/16 01:56:09;;;;;;;11.45;2.67;;;;;;;;;;5066515;28;20131;-86
2021/06/16 01:58:37;;;;;;;4.10;1.92;;;;;;;;;;5074141;28;20127;-86
2021/06/16 02:01:05;;;;;;;4.95;1.88;;;;;;;;;;5092062;28;20083;-86
2021/06/16 02:03:33;;;;;;;4.45;2.28;;;;;;;;;;5072899;28;20488;-87
2021/06/16 02:06:00;;;;;;;5.95;2.50;;;;;;;;;;5056393;28;20050;-86
2021/06/16 02:08:29;;;;;;;7.90;2.20;;;;;;;;;;5056316;28;20082;-87
2021/06/16 02:10:56;;;;;;;5.30;1.90;;;;;;;;;;5073527;28;20498;-87
2021/06/16 02:13:39;;;;;;;6.20;2.03;;;;;;;;;;5056321;28;20054;-87
2021/06/16 02:16:14;;;;;;;4.00;2.10;;;;;;;;;;5056053;28;20589;-86
2021/06/16 02:18:44;;;;;;;6.88;2.30;;;;;;;;;;5055927;28;20161;-86
2021/06/16 02:21:12;;;;;;;6.15;2.47;;;;;;;;;;4989381;28;20081;-85
2021/06/16 02:23:44;;;;;;;2.65;2.13;;;;;;;;;;4989049;28;20142;-85
2021/06/16 02:26:12;;;;;;;6.25;2.60;;;;;;;;;;5072343;28;20052;-85
2021/06/16 02:28:39;;;;;;;5.18;2.25;;;;;;;;;;5073353;28;20135;-85
2021/06/16 02:31:07;;;;;;;8.52;2.55;;;;;;;;;;5073252;28;20265;-86
2021/06/16 02:33:34;;;;;;;4.78;2.15;;;;;;;;;;5072256;28;20464;-86
2021/06/16 02:36:02;;;;;;;8.95;2.30;;;;;;;;;;5055499;28;20042;-86
2021/06/16 02:38:31;;;;;;;5.40;2.30;;;;;;;;;;5072929;28;20117;-86
2021/06/16 02:41:00;;;;;;;7.65;2.50;;;;;;;;;;5072826;28;20050;-86
2021/06/16 02:43:28;;;;;;;3.35;2.13;;;;;;;;;;5091046;28;20076;-86
2021/06/16 02:45:56;;;;;;;5.18;2.03;;;;;;;;;;5072132;28;20488;-86
2021/06/16 02:48:26;;;;;;;11.38;2.33;;;;;;;;;;5073341;28;20508;-85
2021/06/16 02:50:55;;;;;;;5.63;2.28;;;;;;;;;;5091536;28;20397;-86
2021/06/16 02:53:23;;;;;;;8.82;2.58;;;;;;;;;;5075477;28;20040;-85
2021/06/16 02:55:53;;;;;;;5.30;2.80;;;;;;;;;;5094781;28;20101;-86
2021/06/16 02:58:21;;;;;;;4.65;2.15;;;;;;;;;;5094902;28;20680;-86
2021/06/16 03:00:59;;;;;;;6.55;1.80;;;;;;;;;;5095022;28;20108;-85
2021/06/16 03:03:28;;;;;;;2.92;2.20;;;;;;;;;;5076784;28;20044;-86
2021/06/16 03:05:56;;;;;;;4.28;2.22;;;;;;;;;;5086100;28;20129;-86
2021/06/16 03:08:24;;;;;;;3.50;1.83;;;;;;;;;;5075771;28;20108;-86
2021/06/16 03:11:00;;;;;;;5.45;2.13;;;;;;;;;;5094266;28;20098;-86
2021/06/16 03:13:29;;;;;;;8.13;2.45;;;;;;;;;;5059370;28;20090;-85
2021/06/16 03:15:58;;;;;;;4.30;2.63;;;;;;;;;;5058087;28;20050;-86
2021/06/16 03:18:26;;;;;;;7.07;2.05;;;;;;;;;;4991782;28;20086;-86
2021/06/16 03:20:56;;;;;;;9.98;2.53;;;;;;;;;;5058224;28;20093;-86
2021/06/16 03:23:24;;;;;;;8.77;2.80;;;;;;;;;;5058361;28;20091;-86
2021/06/16 03:25:52;;;;;;;9.57;2.53;;;;;;;;;;4991597;28;20097;-86
2021/06/16 03:28:19;;;;;;;31.42;3.40;;;;;;;;;;4991985;28;20129;-86
2021/06/16 03:30:47;;;;;;;14.18;4.43;;;;;;;;;;4991674;28;20138;-86
2021/06/16 03:33:14;;;;;;;7.93;2.70;;;;;;;;;;5021154;28;20147;-86
2021/06/16 03:35:42;;;;;;;6.45;2.60;;;;;;;;;;5076159;28;20129;-86
2021/06/16 03:38:34;;;;;;;8.05;2.70;;;;;;;;;;5076083;28;20466;-86
2021/06/16 03:41:01;;;;;;;6.13;2.70;;;;;;;;;;5093352;28;20448;-86
2021/06/16 03:43:31;;;;;;;8.73;3.22;;;;;;;;;;5093702;28;20098;-86
2021/06/16 03:45:58;;;;;;;7.47;2.88;;;;;;;;;;5075554;28;20159;-86
2021/06/16 03:48:26;;;;;;;16.02;3.28;;;;;;;;;;5076143;28;20048;-86
2021/06/16 03:50:55;;;;;;;12.40;2.45;;;;;;;;;;5093751;28;20463;-86
2021/06/16 03:53:22;;;;;;;10.45;2.80;;;;;;;;;;5096438;28;20135;-86
2021/06/16 03:55:51;;;;;;;6.85;2.65;;;;;;;;;;5075752;28;20480;-86
2021/06/16 03:58:18;;;;;;;7.95;2.88;;;;;;;;;;5075933;28;20164;-87
2021/06/16 04:00:46;;;;;;;28.92;3.38;;;;;;;;;;5075797;28;20052;-86
2021/06/16 04:03:14;;;;;;;10.15;3.05;;;;;;;;;;5076847;28;20048;-87
2021/06/16 04:05:42;;;;;;;10.63;3.22;;;;;;;;;;5075587;28;20087;-86
2021/06/16 04:08:11;;;;;;;12.30;2.75;;;;;;;;;;5094034;28;20130;-86
2021/06/16 04:10:38;;;;;;;24.13;4.25;;;;;;;;;;5075421;28;20143;-87
2021/06/16 04:13:06;;;;;;;13.70;4.88;;;;;;;;;;5074925;28;20048;-87
2021/06/16 04:15:34;;;;;;;8.30;3.08;;;;;;;;;;5074609;28;20127;-87
2021/06/16 04:18:01;;;;;;;8.18;2.75;;;;;;;;;;5075223;28;20116;-87
2021/06/16 04:20:29;;;;;;;13.70;2.20;;;;;;;;;;5074626;28;20142;-86
2021/06/16 04:22:57;;;;;;;6.15;2.60;;;;;;;;;;5074889;28;20567;-87
2021/06/16 04:25:25;;;;;;;9.63;2.55;;;;;;;;;;5092541;28;20135;-86
2021/06/16 04:27:53;;;;;;;16.50;3.33;;;;;;;;;;5075111;28;20445;-87
2021/06/16 04:30:20;;;;;;;7.90;2.95;;;;;;;;;;5072851;28;20091;-87
2021/06/16 04:32:48;;;;;;;2.80;2.30;;;;;;;;;;5092880;28;20101;-86
2021/06/16 04:35:15;;;;;;;7.85;3.17;;;;;;;;;;5091599;28;20066;-87
2021/06/16 04:37:43;;;;;;;5.35;2.70;;;;;;;;;;5057264;28;20100;-87
2021/06/16 04:40:11;;;;;;;9.23;3.20;;;;;;;;;;5074314;28;20052;-87
2021/06/16 04:42:39;;;;;;;11.80;3.70;;;;;;;;;;5056137;28;20623;-86
2021/06/16 04:45:07;;;;;;;15.02;2.63;;;;;;;;;;4990172;28;20089;-87
2021/06/16 04:47:35;;;;;;;8.60;3.00;;;;;;;;;;4990622;28;20152;-87
2021/06/16 04:50:04;;;;;;;10.40;3.45;;;;;;;;;;5057437;28;20058;-87
2021/06/16 04:52:33;;;;;;;8.40;3.13;;;;;;;;;;5064154;28;20050;-87
2021/06/16 04:55:00;;;;;;;5.57;3.00;;;;;;;;;;5074601;28;20078;-87
2021/06/16 04:57:28;;;;;;;5.55;3.35;;;;;;;;;;5092102;28;20090;-87
2021/06/16 04:59:55;;;;;;;7.80;2.92;;;;;;;;;;5075209;28;20501;-87
2021/06/16 05:02:28;;;;;;;8.23;2.65;;;;;;;;;;5074036;28;20084;-86
2021/06/16 05:04:55;;;;;;;7.18;2.72;;;;;;;;;;5056666;28;20085;-86
2021/06/16 05:07:22;;;;;;;26.10;4.57;;;;;;;;;;5073886;28;20127;-86
2021/06/16 05:09:50;;;;;;;10.82;2.55;;;;;;;;;;5089201;28;20087;-87
2021/06/16 05:12:17;;;;;;;10.32;3.10;;;;;;;;;;5051386;28;20133;-87
2021/06/16 05:14:44;;;;;;;8.85;3.33;;;;;;;;;;5056221;28;20061;-87
2021/06/16 05:17:12;;;;;;;7.03;2.50;;;;;;;;;;5074256;28;20201;-87
2021/06/16 05:19:39;;;;;;;19.10;3.33;;;;;;;;;;5073395;28;20861;-87
2021/06/16 05:22:14;;;;;;;18.23;3.03;;;;;;;;;;5073720;28;20110;-86
2021/06/16 05:24:43;;;;;;;11.35;3.10;;;;;;;;;;5073302;28;20052;-87
2021/06/16 05:27:13;;;;;;;8.07;2.40;;;;;;;;;;5090805;28;20109;-87
2021/06/16 05:29:42;;;;;;;8.05;2.45;;;;;;;;;;5092116;28;20083;-87
2021/06/16 05:32:09;;;;;;;10.30;2.80;;;;;;;;;;5091438;28;20102;-87
2021/06/16 05:34:37;;;;;;;2.38;1.90;;;;;;;;;;5073204;28;20987;-86
2021/06/16 05:37:08;;;;;;;7.75;2.28;;;;;;;;;;5091278;28;20151;-87
2021/06/16 05:39:35;;;;;;;6.78;2.13;;;;;;;;;;5073793;28;20102;-87
2021/06/16 05:42:10;;;;;;;9.15;1.55;;;;;;;;;;5055860;28;20050;-87
2021/06/16 05:44:37;;;;;;;6.43;3.05;;;;;;;;;;5072428;28;20127;-86
2021/06/16 05:47:04;;;;;;;8.38;2.42;;;;;;;;;;5091740;28;20767;-87
2021/06/16 05:49:36;;;;;;;4.80;1.83;;;;;;;;;;5073737;28;20127;-87
2021/06/16 05:52:04;;;;;;;9.95;2.55;;;;;;;;;;5073092;28;20047;-87
2021/06/16 05:54:35;;;;;;;17.08;4.50;;;;;;;;;;5091023;28;20043;-87
2021/06/16 05:57:02;;;;;;;11.10;2.42;;;;;;;;;;5072527;28;20087;-87
2021/06/16 05:59:29;;;;;;;14.80;2.95;;;;;;;;;;5073114;28;20083;-87
2021/06/16 06:01:56;;;;;;;6.43;1.95;;;;;;;;;;5073885;28;20080;-87
2021/06/16 06:04:23;;;;;;;7.68;1.83;;;;;;;;;;5073329;28;20062;-87
2021/06/16 06:06:51;;;;;;;6.03;1.63;;;;;;;;;;5073315;28;20087;-87
2021/06/16 06:09:18;;;;;;;5.63;2.03;;;;;;;;;;5055097;28;20080;-86
2021/06/16 06:11:45;;;;;;;13.48;2.30;;;;;;;;;;5078280;28;20047;-87
2021/06/16 06:14:13;;;;;;;14.55;2.15;;;;;;;;;;5081097;28;20059;-86
2021/06/16 06:16:40;;;;;;;9.70;1.88;;;;;;;;;;5082091;28;20078;-87
2021/06/16 06:19:07;;;;;;;15.90;2.55;;;;;;;;;;5080574;28;20113;-87
2021/06/16 06:21:35;;;;;;;9.60;1.70;;;;;;;;;;5098744;28;20182;-87
2021/06/16 06:24:02;;;;;;;4.57;1.50;;;;;;;;;;5082527;28;20048;-87
2021/06/16 06:26:31;;;;;;;8.10;2.55;;;;;;;;;;5083722;28;20059;-87
2021/06/16 06:28:58;;;;;;;4.97;1.58;;;;;;;;;;5089559;28;20040;-87
2021/06/16 06:31:31;;;;;;;11.38;2.00;;;;;;;;;;5074168;28;20140;-87
2021/06/16 06:33:59;;;;;;;6.00;2.03;;;;;;;;;;5073392;28;20072;-88
2021/06/16 06:36:30;;;;;;;6.82;1.63;;;;;;;;;;5071319;28;20076;-87
2021/06/16 06:38:58;;;;;;;13.88;1.95;;;;;;;;;;5089541;28;20040;-87
2021/06/16 06:41:25;;;;;;;4.00;1.27;;;;;;;;;;5081911;28;20097;-88
2021/06/16 06:43:53;;;;;;;12.30;1.90;;;;;;;;;;5097927;28;20069;-87
2021/06/16 06:46:20;;;;;;;14.15;1.38;;;;;;;;;;5078880;28;20082;-87
2021/06/16 06:48:47;;;;;;;4.15;1.73;;;;;;;;;;5079934;28;20104;-88
2021/06/16 06:51:15;;;;;;;9.93;2.20;;;;;;;;;;5080003;28;20048;-87
2021/06/16 06:53:42;;;;;;;12.55;1.95;;;;;;;;;;5079832;28;20088;-88
2021/06/16 06:56:14;;;;;;;4.60;1.50;;;;;;;;;;5073628;28;20782;-87
2021/06/16 06:58:41;;;;;;;14.50;1.55;;;;;;;;;;5058487;28;20236;-88
2021/06/16 07:01:09;;;;;;;12.35;1.90;;;;;;;;;;5057465;28;20105;-88
2021/06/16 07:03:36;;;;;;;10.02;1.60;;;;;;;;;;5074115;28;20072;-87
2021/06/16 07:06:03;;;;;;;3.35;1.10;;;;;;;;;;5094670;28;20079;-88
2021/06/16 07:08:35;;;;;;;6.70;1.48;;;;;;;;;;5094968;28;20113;-88
2021/06/16 07:11:02;;;;;;;6.15;1.30;;;;;;;;;;5059317;28;20050;-88
2021/06/16 07:13:29;;;;;;;5.22;1.65;;;;;;;;;;5058374;28;20093;-88
2021/06/16 07:16:07;;;;;;;8.65;1.70;;;;;;;;;;5052897;28;20082;-88
2021/06/16 07:18:34;;;;;;;4.25;1.55;;;;;;;;;;4991475;28;20058;-88
2021/06/16 07:21:02;;;;;;;9.18;1.58;;;;;;;;;;5058070;28;20051;-88
2021/06/16 07:23:29;;;;;;;11.38;2.33;;;;;;;;;;4992104;28;20089;-88
2021/06/16 07:25:57;;;;;;;11.50;2.10;;;;;;;;;;5058867;28;20058;-88
2021/06/16 07:28:24;;;;;;;4.93;1.25;;;;;;;;;;5076953;28;20131;-88
2021/06/16 07:30:51;;;;;;;6.45;1.83;;;;;;;;;;5077234;28;20078;-88
2021/06/16 07:33:19;;;;;;;9.80;1.73;;;;;;;;;;5077296;28;20063;-88
2021/06/16 07:35:50;;;;;;;4.47;1.33;;;;;;;;;;5093880;28;20090;-88
2021/06/16 07:38:17;;;;;;;9.23;1.75;;;;;;;;;;5075582;28;20131;-88
2021/06/16 07:40:44;;;;;;;10.25;1.95;;;;;;;;;;5094242;28;20094;-88
2021/06/16 07:43:12;;;;;;;9.85;1.88;;;;;;;;;;5076474;28;20076;-88
2021/06/16 07:45:39;;;;;;;5.82;2.22;;;;;;;;;;5076107;28;20480;-88
2021/06/16 07:48:07;;;;;;;6.53;1.42;;;;;;;;;;5094672;28;20504;-88
2021/06/16 07:50:36;;;;;;;9.50;1.40;;;;;;;;;;5075625;28;20093;-89
2021/06/16 07:53:07;;;;;;;10.85;2.13;;;;;;;;;;5076329;28;20068;-89
2021/06/16 07:55:35;;;;;;;7.13;1.88;;;;;;;;;;5076257;28;20071;-88
2021/06/16 07:58:03;;;;;;;9.98;1.88;;;;;;;;;;5075001;28;20746;-89
2021/06/16 08:00:31;;;;;;;7.53;1.65;;;;;;;;;;5076885;28;20048;-89
2021/06/16 08:02:58;;;;;;;6.10;1.50;;;;;;;;;;5076297;28;20044;-88
2021/06/16 08:05:26;;;;;;;14.52;2.13;;;;;;;;;;5075203;28;20102;-88
2021/06/16 08:07:53;;;;;;;14.57;1.77;;;;;;;;;;5093783;28;20052;-88
2021/06/16 08:10:20;;;;;;;5.70;1.35;;;;;;;;;;5075932;28;20075;-89
2021/06/16 08:12:47;;;;;;;9.70;1.48;;;;;;;;;;5058847;28;20478;-89
2021/06/16 08:15:21;;;;;;;19.30;3.85;;;;;;;;;;5078298;28;20083;-89
2021/06/16 08:17:51;;;;;;;6.15;2.00;;;;;;;;;;5075668;28;20099;-90
2021/06/16 08:20:18;;;;;;;3.60;1.30;;;;;;;;;;5075647;28;20100;-89
2021/06/16 08:22:46;;;;;;;12.02;2.15;;;;;;;;;;5094187;28;20109;-88
2021/06/16 08:25:14;;;;;;;7.43;1.77;;;;;;;;;;5075867;28;20055;-88
2021/06/16 08:27:52;;;;;;;12.80;1.35;;;;;;;;;;5076156;28;20044;-89
2021/06/16 08:30:20;;;;;;;6.05;1.63;;;;;;;;;;5094102;28;20130;-89
2021/06/16 08:32:48;;;;;;;7.75;1.42;;;;;;;;;;5076229;28;20117;-89
2021/06/16 08:35:15;;;;;;;4.03;1.20;;;;;;;;;;5084128;28;20078;-89
2021/06/16 08:37:43;;;;;;;6.63;2.10;;;;;;;;;;5093649;28;20078;-88
2021/06/16 08:40:11;;;;;;;13.40;2.25;;;;;;;;;;5057272;28;20061;-89
2021/06/16 08:42:40;;;;;;;6.68;1.63;;;;;;;;;;4990462;28;20559;-88
2021/06/16 08:45:07;;;;;;;6.65;1.50;;;;;;;;;;5059698;28;20052;-89
2021/06/16 08:47:35;;;;;;;8.90;1.95;;;;;;;;;;5092421;28;20052;-89
2021/06/16 08:50:05;;;;;;;5.25;1.40;;;;;;;;;;5073018;28;20075;-89
2021/06/16 08:52:33;;;;;;;11.48;1.98;;;;;;;;;;5075465;28;20058;-89
2021/06/16 08:55:12;;;;;;;7.85;1.60;;;;;;;;;;5093620;28;20055;-90
2021/06/16 08:57:42;;;;;;;7.50;1.95;;;;;;;;;;5076037;28;20054;-89
2021/06/16 09:00:10;;;;;;;4.28;1.20;;;;;;;;;;5094231;28;20083;-90
2021/06/16 09:02:38;;;;;;;6.25;1.38;;;;;;;;;;5075900;28;20051;-89
2021/06/16 09:05:07;;;;;;;6.80;1.38;;;;;;;;;;5057510;28;20058;-89
2021/06/16 09:07:37;;;;;;;8.70;1.40;;;;;;;;;;5078922;28;20136;-90
2021/06/16 09:10:08;;;;;;;8.88;1.70;;;;;;;;;;5093947;28;20699;-89
2021/06/16 09:12:39;;;;;;;22.38;2.35;;;;;;;;;;5072558;28;20048;-90
2021/06/16 09:15:14;;;;;;;5.30;1.20;;;;;;;;;;5071740;28;20056;-90
2021/06/16 09:17:41;;;;;;;12.02;1.83;;;;;;;;;;5072283;28;20132;-90
2021/06/16 09:20:09;;;;;;;8.85;2.22;;;;;;;;;;5073482;28;20648;-90
2021/06/16 09:22:38;;;;;;;9.75;1.58;;;;;;;;;;5071712;28;20048;-90
2021/06/16 09:25:07;;;;;;;4.80;1.50;;;;;;;;;;5073151;28;20055;-90
2021/06/16 09:27:38;;;;;;;9.23;2.33;;;;;;;;;;5071887;28;20083;-90
2021/06/16 09:30:25;;;;;;;3.35;1.40;;;;;;;;;;5071904;28;20143;-90
2021/06/16 09:32:58;;;;;;;4.32;1.30;;;;;;;;;;5055079;28;20590;-91
2021/06/16 09:35:27;;;;;;;8.82;1.63;;;;;;;;;;5071446;28;20079;-90
2021/06/16 09:37:55;;;;;;;10.15;1.30;;;;;;;;;;5074247;28;20052;-90
2021/06/16 09:40:26;;;;;;;7.95;1.60;;;;;;;;;;5084007;28;20443;-90
2021/06/16 09:42:56;;;;;;;6.20;1.35;;;;;;;;;;5058191;28;20085;-89
2021/06/16 09:45:24;;;;;;;7.15;1.35;;;;;;;;;;5057809;28;20051;-90
2021/06/16 09:47:51;;;;;;;3.30;1.30;;;;;;;;;;5058056;28;20076;-90
2021/06/16 09:50:26;;;;;;;6.60;1.40;;;;;;;;;;4991745;28;20125;-90
2021/06/16 09:52:54;;;;;;;8.30;1.45;;;;;;;;;;5058594;28;20077;-91
2021/06/16 09:55:21;;;;;;;4.55;1.38;;;;;;;;;;4991863;28;20475;-90
2021/06/16 09:57:58;;;;;;;12.63;1.58;;;;;;;;;;5057679;28;20137;-90
2021/06/16 10:00:29;;;;;;;14.35;1.80;;;;;;;;;;5056917;28;20546;-91
2021/06/16 10:03:08;;;;;;;6.25;1.38;;;;;;;;;;5008283;28;20480;-90
2021/06/16 10:05:57;;;;;;;6.63;1.20;;;;;;;;;;5075790;28;20499;-90
2021/06/16 10:08:25;;;;;;;5.35;1.33;;;;;;;;;;5063528;28;20102;-89
2021/06/16 10:10:52;;;;;;;7.65;1.70;;;;;;;;;;5076661;28;20040;-89
2021/06/16 10:13:26;;;;;;;7.53;1.10;;;;;;;;;;5094456;28;20071;-89
2021/06/16 10:15:55;;;;;;;4.82;1.65;;;;;;;;;;5094635;28;20052;-89
2021/06/16 10:18:22;;;;;;;13.70;1.55;;;;;;;;;;5093924;28;20088;-89
2021/06/16 10:20:50;;;;;;;10.90;2.00;;;;;;;;;;5075976;28;20785;-90
2021/06/16 10:23:30;;;;;;;9.00;1.60;;;;;;;;;;5075862;28;20093;-90
2021/06/16 10:26:06;;;;;;;2.65;1.52;;;;;;;;;;5075831;28;20052;-89
2021/06/16 10:28:48;;;;;;;7.05;1.50;;;;;;;;;;5094032;28;20438;-90
2021/06/16 10:31:19;;;;;;;7.50;1.67;;;;;;;;;;5076890;28;20160;-90
2021/06/16 10:33:55;;;;;;;4.97;1.17;;;;;;;;;;5075911;28;20048;-91
2021/06/16 10:36:25;;;;;;;4.00;1.38;;;;;;;;;;5093678;28;20046;-90
2021/06/16 10:38:58;;;;;;;32.10;2.75;;;;;;;;;;5096372;28;20044;-90
2021/06/16 10:41:38;;;;;;;4.93;1.30;;;;;;;;;;5075536;28;20105;-90
2021/06/16 10:44:12;;;;;;;19.23;2.97;;;;;;;;;;5075647;28;20080;-90
2021/06/16 10:47:05;;;;;;;4.93;0.88;;;;;;;;;;5076096;28;20051;-89
2021/06/16 10:49:55;;;;;;;6.25;1.42;;;;;;;;;;5085227;28;20055;-90
2021/06/16 10:52:26;;;;;;;4.18;1.10;;;;;;;;;;5073938;28;20079;-90
2021/06/16 10:55:01;;;;;;;13.30;1.58;;;;;;;;;;5073950;28;20720;-89
2021/06/16 10:57:29;;;;;;;7.18;1.98;;;;;;;;;;5055617;28;20083;-90
2021/06/16 10:59:56;;;;;;;3.55;1.15;;;;;;;;;;5055862;28;20053;-90
2021/06/16 11:02:33;;;;;;;4.22;1.27;;;;;;;;;;5056243;28;20056;-91
2021/06/16 11:05:20;;;;;;;7.53;1.50;;;;;;;;;;5076252;28;20110;-91
2021/06/16 11:07:48;;;;;;;7.82;1.88;;;;;;;;;;5076147;28;20059;-91
2021/06/16 11:10:15;;;;;;;10.35;1.48;;;;;;;;;;5076163;28;20090;-90
2021/06/16 11:12:47;;;;;;;8.48;1.73;;;;;;;;;;5093682;28;20123;-90
2021/06/16 11:15:17;;;;;;;10.80;1.80;;;;;;;;;;5080275;28;20052;-90
2021/06/16 11:17:46;;;;;;;5.03;1.55;;;;;;;;;;5079710;28;20083;-91
2021/06/16 11:20:19;;;;;;;5.97;1.75;;;;;;;;;;5079910;28;20436;-91
2021/06/16 11:22:48;;;;;;;5.53;1.50;;;;;;;;;;5079632;28;20127;-92
2021/06/16 11:25:19;;;;;;;9.80;1.67;;;;;;;;;;5079599;28;20431;-91
2021/06/16 11:28:08;;;;;;;6.25;1.80;;;;;;;;;;5062805;28;20136;-91
2021/06/16 11:30:48;;;;;;;13.43;1.63;;;;;;;;;;5078707;28;20499;-90
2021/06/16 11:33:19;;;;;;;5.50;1.48;;;;;;;;;;5096941;28;20090;-91
2021/06/16 11:35:49;;;;;;;9.65;2.40;;;;;;;;;;5079963;28;20054;-92
2021/06/16 11:38:19;;;;;;;3.67;1.42;;;;;;;;;;5079746;28;20075;-91
2021/06/16 11:41:04;;;;;;;8.82;2.05;;;;;;;;;;5079417;28;20071;-92
2021/06/16 11:43:50;;;;;;;4.68;1.52;;;;;;;;;;5096697;28;20086;-92
2021/06/16 11:56:47;;;;;;;5.32;1.52;;;;;;;;;;5097275;28;20051;-91
2021/06/16 11:59:14;;;;;;;3.35;1.30;;;;;;;;;;5078447;28;20083;-92
2021/06/16 12:01:44;;;;;;;5.63;1.45;;;;;;;;;;5079530;28;20051;-91
2021/06/16 12:04:13;;;;;;;4.50;1.20;;;;;;;;;;5096971;28;20075;-92
2021/06/16 12:06:41;;;;;;;5.65;1.27;;;;;;;;;;5079141;28;20061;-92
2021/06/16 12:09:09;;;;;;;6.95;2.30;;;;;;;;;;5079097;28;20083;-91
2021/06/16 12:11:37;;;;;;;8.68;3.03;;;;;;;;;;5079187;28;20087;-92
2021/06/16 12:14:08;;;;;;;6.93;1.58;;;;;;;;;;5096888;28;20102;-92
2021/06/16 12:16:40;;;;;;;6.55;1.90;;;;;;;;;;5097175;28;20048;-92
2021/06/16 12:19:18;;;;;;;54.90;3.95;;;;;;;;;;5096551;28;20428;-92
2021/06/16 12:22:04;;;;;;;11.40;2.97;;;;;;;;;;5079315;28;20123;-92
2021/06/16 12:24:35;;;;;;;11.18;1.65;;;;;;;;;;5079098;28;20093;-92
2021/06/16 12:27:08;;;;;;;5.95;1.70;;;;;;;;;;5078399;28;20488;-92
2021/06/16 12:29:51;;;;;;;6.25;1.95;;;;;;;;;;5079230;28;20109;-92
2021/06/16 12:32:33;;;;;;;5.20;1.52;;;;;;;;;;5096673;28;20121;-93
2021/06/16 12:37:53;;;;;;;9.80;2.55;;;;;;;;;;5096114;28;20040;-91
2021/06/16 12:40:32;;;;;;;6.93;1.98;;;;;;;;;;5096240;28;20080;-92
2021/06/16 12:43:00;;;;;;;4.20;1.60;;;;;;;;;;5075485;28;20106;-92
2021/06/16 12:45:33;;;;;;;5.15;1.75;;;;;;;;;;5058980;28;20122;-92
2021/06/16 12:48:02;;;;;;;8.60;1.70;;;;;;;;;;5057986;28;20048;-92
2021/06/16 12:53:59;;;;;;;5.80;1.23;;;;;;;;;;5075554;28;20143;-92
2021/06/16 12:56:26;;;;;;;4.45;1.38;;;;;;;;;;5076298;28;20110;-92
2021/06/16 12:58:53;;;;;;;5.82;1.67;;;;;;;;;;5076149;28;20388;-92
2021/06/16 13:08:01;;;;;;;4.80;1.50;;;;;;;;;;5095763;28;20051;-91
2021/06/16 13:10:28;;;;;;;7.82;1.33;;;;;;;;;;5077946;28;20507;-91
2021/06/16 13:16:25;;;;;;;2.53;1.23;;;;;;;;;;5095686;28;20039;-92
2021/06/16 13:18:53;;;;;;;2.00;1.20;;;;;;;;;;5077857;28;20044;-91
2021/06/16 13:21:20;;;;;;;2.50;1.23;;;;;;;;;;5095395;28;20046;-91
2021/06/16 13:23:54;;;;;;;7.18;1.35;;;;;;;;;;5077801;28;20102;-92
2021/06/16 13:26:22;;;;;;;9.00;1.92;;;;;;;;;;5078212;28;20060;-92
2021/06/16 13:29:03;;;;;;;6.15;1.88;;;;;;;;;;5076988;28;20476;-92
2021/06/16 13:31:30;;;;;;;2.97;1.60;;;;;;;;;;5094522;28;20044;-91
2021/06/16 13:34:10;;;;;;;5.75;1.65;;;;;;;;;;5077827;28;20040;-92
2021/06/16 13:36:38;;;;;;;6.45;1.40;;;;;;;;;;5076662;28;20123;-91
2021/06/16 13:39:42;;;;;;;3.70;1.50;;;;;;;;;;5076880;28;20476;-91
2021/06/16 13:42:19;;;;;;;31.15;3.00;;;;;;;;;;5095353;28;20097;-92
2021/06/16 13:44:47;;;;;;;3.90;1.45;;;;;;;;;;5077814;28;20048;-91
2021/06/16 13:47:14;;;;;;;6.28;1.55;;;;;;;;;;5077416;28;20079;-91
2021/06/16 13:49:41;;;;;;;6.22;1.35;;;;;;;;;;5095035;28;20047;-92
2021/06/16 13:56:15;;;;;;;8.57;1.55;;;;;;;;;;5094970;28;20035;-91
2021/06/16 13:58:42;;;;;;;7.20;1.95;;;;;;;;;;5077136;28;20044;-91
2021/06/16 14:01:10;;;;;;;9.68;1.92;;;;;;;;;;5077401;28;20044;-91
2021/06/16 14:03:37;;;;;;;5.90;1.60;;;;;;;;;;5076972;28;20457;-92
2021/06/16 14:06:06;;;;;;;5.25;1.58;;;;;;;;;;5079402;28;20429;-92
2021/06/16 14:08:33;;;;;;;12.27;1.75;;;;;;;;;;5076813;28;20135;-92
2021/06/16 14:11:02;;;;;;;9.10;2.40;;;;;;;;;;5095117;28;20047;-92
2021/06/16 14:13:48;;;;;;;8.40;2.20;;;;;;;;;;5077281;28;20074;-92
2021/06/16 14:16:16;;;;;;;7.55;2.25;;;;;;;;;;5077075;28;20055;-92
2021/06/16 14:18:44;;;;;;;11.88;2.20;;;;;;;;;;5077276;28;20130;-92
2021/06/16 14:21:11;;;;;;;2.95;1.67;;;;;;;;;;5076524;28;20079;-91
2021/06/16 14:23:38;;;;;;;6.25;1.80;;;;;;;;;;5077577;28;20443;-92
2021/06/16 14:26:32;;;;;;;9.18;1.50;;;;;;;;;;5077191;28;20075;-92
2021/06/16 14:29:04;;;;;;;4.32;1.52;;;;;;;;;;5077581;28;20111;-93
2021/06/16 14:31:32;;;;;;;6.25;2.60;;;;;;;;;;5060607;28;20048;-92
2021/06/16 14:33:59;;;;;;;5.30;1.80;;;;;;;;;;5076309;28;20044;-91
2021/06/16 14:36:27;;;;;;;7.15;1.60;;;;;;;;;;5094827;28;20067;-92
2021/06/16 14:38:54;;;;;;;7.07;2.20;;;;;;;;;;5076829;28;20052;-92
2021/06/16 14:41:22;;;;;;;8.07;1.65;;;;;;;;;;5059796;28;20487;-92
2021/06/16 14:43:49;;;;;;;6.13;1.77;;;;;;;;;;4992812;28;20053;-92
2021/06/16 14:46:16;;;;;;;9.90;2.03;;;;;;;;;;5060723;28;20550;-90
2021/06/16 14:59:04;;;;;;;6.75;1.48;;;;;;;;;;4996145;28;20041;-92
2021/06/16 15:01:31;;;;;;;5.25;2.00;;;;;;;;;;5063121;28;20050;-92
2021/06/16 15:03:58;;;;;;;8.73;3.72;;;;;;;;;;5062518;28;20498;-92
2021/06/16 15:06:26;;;;;;;11.93;2.53;;;;;;;;;;5062270;28;20074;-92
2021/06/16 15:08:53;;;;;;;6.03;2.08;;;;;;;;;;4995919;28;20050;-90
2021/06/16 15:11:20;;;;;;;5.30;1.90;;;;;;;;;;5079584;28;20080;-91
2021/06/16 15:13:47;;;;;;;5.10;1.70;;;;;;;;;;5097881;28;20098;-91
2021/06/16 15:16:15;;;;;;;7.10;1.83;;;;;;;;;;5081834;28;20075;-91
2021/06/16 15:18:43;;;;;;;12.20;3.13;;;;;;;;;;5079960;28;20055;-91
2021/06/16 15:21:10;;;;;;;8.85;1.75;;;;;;;;;;5098307;28;20047;-91
2021/06/16 15:23:39;;;;;;;4.07;1.70;;;;;;;;;;5079389;28;20516;-91
2021/06/16 15:26:06;;;;;;;4.82;2.10;;;;;;;;;;5080240;28;20109;-92
2021/06/16 15:28:33;;;;;;;6.10;2.00;;;;;;;;;;5079625;28;20465;-91
2021/06/16 15:31:01;;;;;;;5.43;2.20;;;;;;;;;;5080227;28;20059;-91
2021/06/16 15:33:29;;;;;;;10.32;1.90;;;;;;;;;;5079534;28;20546;-91
2021/06/16 15:35:56;;;;;;;5.18;1.73;;;;;;;;;;5080402;28;20079;-90
2021/06/16 15:38:23;;;;;;;4.15;1.90;;;;;;;;;;5079879;28;20427;-91